Time;durP1;ratioP1;P1;durP2;ratioP2;P2;SDS_P1;SDS_P2;PMS_P1;PMS_P2;Temp;Humidity;BMP_temperature;BMP_pressure;BME280_temperature;BME280_humidity;BME280_pressure;Samples;Min_cycle;Max_cycle;Signal;HPM_P1;HPM_P2
2022/02/07 00:00:46;;;;;;;19.20;11.65;;;;;;;0.01;96.88;99905.48;1698752;83;21790;-78
2022/02/07 00:03:59;;;;;;;19.05;10.60;;;;;;;0.05;96.89;99903.39;1689884;85;21509;-78
2022/02/07 00:06:59;;;;;;;27.67;15.15;;;;;;;0.09;96.85;99892.77;1692149;83;21898;-77
2022/02/07 00:10:07;;;;;;;20.95;12.45;;;;;;;0.13;96.73;99889.72;1690718;85;21343;-79
2022/02/07 00:13:13;;;;;;;20.92;12.28;;;;;;;0.15;96.60;99887.78;1689453;85;21731;-79
2022/02/07 00:16:19;;;;;;;24.67;11.53;;;;;;;0.17;96.61;99867.48;1722371;83;21724;-79
2022/02/07 00:19:27;;;;;;;23.20;12.30;;;;;;;0.21;96.68;99868.47;1724088;83;21346;-79
2022/02/07 00:22:32;;;;;;;26.15;14.73;;;;;;;0.24;96.60;99856.13;1690146;85;21239;-79
2022/02/07 00:25:38;;;;;;;23.10;11.88;;;;;;;0.29;96.66;99854.42;1689690;84;21767;-78
2022/02/07 00:28:45;;;;;;;20.68;11.28;;;;;;;0.33;96.71;99855.00;1689419;85;21286;-79
2022/02/07 00:31:50;;;;;;;19.80;11.22;;;;;;;0.37;96.89;99848.41;1689747;85;21917;-79
2022/02/07 00:34:55;;;;;;;18.70;9.60;;;;;;;0.39;96.98;99847.32;1689608;85;21405;-79
2022/02/07 00:38:06;;;;;;;20.82;10.13;;;;;;;0.42;97.08;99840.33;1690847;85;21355;-79
2022/02/07 00:44:20;;;;;;;19.60;9.75;;;;;;;0.49;97.06;99829.95;1690555;85;21906;-79
2022/02/07 00:47:25;;;;;;;15.65;8.18;;;;;;;0.50;97.23;99828.95;1691625;85;21689;-78
2022/02/07 00:50:30;;;;;;;18.30;9.35;;;;;;;0.55;97.56;99818.67;1691510;85;21871;-80
2022/02/07 00:53:36;;;;;;;16.35;8.28;;;;;;;0.60;97.51;99818.30;1707099;82;21308;-79
2022/02/07 00:56:41;;;;;;;15.18;8.35;;;;;;;0.59;97.37;99809.38;1711241;84;21306;-79
2022/02/07 00:59:48;;;;;;;14.70;7.65;;;;;;;0.57;97.28;99807.31;1729922;82;21319;-78
2022/02/07 01:02:55;;;;;;;11.38;7.05;;;;;;;0.55;97.39;99797.14;1737339;82;22351;-78
2022/02/07 01:06:00;;;;;;;18.30;7.28;;;;;;;0.48;97.52;99795.95;1741221;82;21934;-78
2022/02/07 01:19:18;;;;;;;17.10;7.67;;;;;;;0.28;99.27;99777.84;1687833;85;21332;-81
2022/02/07 01:49:28;;;;;;;15.58;6.92;;;;;;;0.45;100.00;99726.22;1710601;84;21838;-78
2022/02/07 01:52:25;;;;;;;12.10;6.15;;;;;;;0.45;100.00;99726.22;1710411;84;21330;-78
2022/02/07 01:58:30;;;;;;;15.00;6.55;;;;;;;0.45;100.00;99716.80;1716796;83;21319;-78
2022/02/07 02:01:37;;;;;;;;;;;;;;;0.44;100.00;99713.76;1731047;83;21213;-78
2022/02/07 02:04:42;;;;;;;16.37;6.60;;;;;;;0.41;100.00;99702.74;1715942;83;20286;-78
2022/02/07 02:07:51;;;;;;;17.90;6.03;;;;;;;0.39;100.00;99698.48;1716994;83;21593;-78
2022/02/07 02:10:59;;;;;;;13.25;6.42;;;;;;;0.39;100.00;99692.61;1717119;83;21358;-78
2022/02/07 02:21:40;;;;;;;15.55;6.30;;;;;;;0.46;100.00;99672.27;1746247;82;21951;-77
2022/02/07 02:34:28;;;;;;;11.25;5.80;;;;;;;0.54;100.00;99656.84;1746312;82;21851;-79
2022/02/07 02:37:28;;;;;;;8.85;4.97;;;;;;;0.57;100.00;99643.63;1746845;82;21772;-79
2022/02/07 02:47:25;;;;;;;10.18;5.60;;;;;;;0.68;100.00;99637.69;1746572;82;21318;-78
2022/02/07 02:50:37;;;;;;;10.70;5.55;;;;;;;0.69;100.00;99635.36;1746321;82;21826;-79
2022/02/07 02:53:44;;;;;;;8.18;4.78;;;;;;;0.70;100.00;99634.36;1745449;82;21177;-79
2022/02/07 02:56:50;;;;;;;9.65;5.08;;;;;;;0.69;100.00;99635.36;1738968;82;21354;-79
2022/02/07 02:59:56;;;;;;;10.90;5.15;;;;;;;0.70;100.00;99633.02;1729972;82;21320;-79
2022/02/07 03:03:03;;;;;;;12.43;4.95;;;;;;;0.75;100.00;99630.82;1739652;82;21741;-78
2022/02/07 03:06:08;;;;;;;9.13;5.58;;;;;;;0.83;100.00;99631.50;1740500;82;21400;-78
2022/02/07 03:09:15;;;;;;;11.75;5.42;;;;;;;0.84;100.00;99629.66;1740702;82;21254;-78
2022/02/07 03:12:21;;;;;;;12.07;5.05;;;;;;;0.87;100.00;99623.52;1739535;82;21308;-78
2022/02/07 03:18:51;;;;;;;11.57;5.85;;;;;;;0.89;100.00;99616.64;1705696;84;21370;-79
2022/02/07 03:21:56;;;;;;;11.73;5.33;;;;;;;0.88;100.00;99613.10;1704792;84;21403;-79
2022/02/07 03:25:02;;;;;;;18.32;7.10;;;;;;;0.91;100.00;99604.77;1705114;84;21826;-79
2022/02/07 03:28:11;;;;;;;15.03;6.50;;;;;;;0.96;100.00;99596.30;1704465;84;21256;-79
2022/02/07 03:31:16;;;;;;;15.55;7.33;;;;;;;0.96;100.00;99598.99;1739056;82;21367;-79
2022/02/07 03:34:21;;;;;;;14.00;6.53;;;;;;;0.96;100.00;99600.34;1741553;82;21330;-79
2022/02/07 03:37:28;;;;;;;12.80;5.35;;;;;;;0.94;100.00;99595.56;1729378;82;21649;-79
2022/02/07 03:40:35;;;;;;;12.55;5.55;;;;;;;0.93;100.00;99599.25;1741296;82;21875;-79
2022/02/07 03:43:41;;;;;;;10.65;4.87;;;;;;;0.92;100.00;99592.16;1709967;84;21363;-79
2022/02/07 03:46:46;;;;;;;13.68;5.90;;;;;;;0.88;100.00;99590.22;1709728;84;21205;-78
2022/02/07 03:49:53;;;;;;;13.00;6.20;;;;;;;0.86;100.00;99585.47;1709907;84;21201;-79
2022/02/07 03:53:01;;;;;;;12.82;7.22;;;;;;;0.85;100.00;99581.08;1710604;84;21242;-78
2022/02/07 03:56:08;;;;;;;9.10;5.03;;;;;;;0.83;100.00;99569.57;1710277;83;21320;-79
2022/02/07 03:59:13;;;;;;;10.18;5.58;;;;;;;0.76;100.00;99565.22;1746895;82;21830;-79
2022/02/07 04:02:20;;;;;;;9.38;5.08;;;;;;;0.70;100.00;99563.53;1717233;83;21371;-79
2022/02/07 04:05:46;;;;;;;14.55;6.05;;;;;;;0.63;100.00;99557.83;1745324;82;21216;-79
2022/02/07 04:08:53;;;;;;;14.07;7.78;;;;;;;0.58;100.00;99556.52;1747470;82;21320;-78
2022/02/07 04:12:14;;;;;;;10.18;5.58;;;;;;;0.53;100.00;99559.61;1746753;82;21305;-78
2022/02/07 04:15:20;;;;;;;14.07;5.80;;;;;;;0.50;100.00;99554.48;1746381;82;21199;-79
2022/02/07 04:18:33;;;;;;;13.32;6.10;;;;;;;0.45;100.00;99543.25;1746748;82;21290;-78
2022/02/07 04:21:33;;;;;;;9.90;5.10;;;;;;;0.41;100.00;99548.53;1746453;82;21337;-78
2022/02/07 04:24:41;;;;;;;15.40;6.45;;;;;;;0.35;100.00;99543.68;1745363;82;21884;-78
2022/02/07 04:27:49;;;;;;;12.03;5.85;;;;;;;0.32;100.00;99546.13;1747338;82;21350;-77
2022/02/07 04:30:55;;;;;;;9.63;4.70;;;;;;;0.32;100.00;99546.61;1746953;82;21301;-77
2022/02/07 04:34:01;;;;;;;15.53;5.67;;;;;;;0.33;100.00;99549.66;1720393;82;21857;-78
2022/02/07 04:37:08;;;;;;;13.20;5.67;;;;;;;0.36;100.00;99540.00;1744789;82;21864;-78
2022/02/07 04:40:15;;;;;;;12.10;6.78;;;;;;;0.39;100.00;99543.78;1744839;82;21354;-78
2022/02/07 04:43:21;;;;;;;9.75;6.33;;;;;;;0.41;100.00;99544.00;1746363;82;21322;-78
2022/02/07 04:49:58;;;;;;;15.53;6.05;;;;;;;0.51;100.00;99535.50;1746397;82;21309;-78
2022/02/07 04:59:22;;;;;;;12.95;6.30;;;;;;;0.64;100.00;99527.23;1731659;82;21423;-78
2022/02/07 05:15:38;;;;;;;11.55;6.42;;;;;;;0.87;100.00;99517.16;1713929;82;21312;-78
2022/02/07 05:18:44;;;;;;;12.45;6.53;;;;;;;0.92;100.00;99518.95;1768242;81;21189;-78
2022/02/07 05:21:55;;;;;;;16.73;5.80;;;;;;;0.97;100.00;99513.17;1765281;81;21976;-78
2022/02/07 05:25:07;;;;;;;10.93;5.87;;;;;;;1.04;100.00;99508.97;1738619;81;21212;-78
2022/02/07 05:28:23;;;;;;;13.95;7.85;;;;;;;1.12;100.00;99510.47;1706996;81;21724;-78
2022/02/07 05:31:31;;;;;;;13.83;5.45;;;;;;;1.17;100.00;99505.52;1769179;79;21950;-78
2022/02/07 05:34:38;;;;;;;13.40;6.17;;;;;;;1.23;100.00;99515.78;1770148;81;21276;-78
2022/02/07 05:37:54;;;;;;;10.82;5.22;;;;;;;1.27;100.00;99507.78;1768718;81;21403;-78
2022/02/07 05:41:05;;;;;;;13.65;7.15;;;;;;;1.31;100.00;99506.99;1770046;81;21299;-78
2022/02/07 05:44:15;;;;;;;14.07;7.40;;;;;;;1.33;100.00;99511.77;1766276;81;21875;-80
2022/02/07 05:47:25;;;;;;;15.83;6.03;;;;;;;1.35;100.00;99519.20;1769501;81;21330;-80
2022/02/07 05:50:41;;;;;;;10.95;5.40;;;;;;;1.40;100.00;99502.62;1748389;81;21299;-79
2022/02/07 05:54:03;;;;;;;12.15;5.45;;;;;;;1.43;100.00;99496.47;1769454;81;21377;-78
2022/02/07 05:57:10;;;;;;;10.05;5.42;;;;;;;1.47;100.00;99497.06;1769481;81;21323;-77
2022/02/07 06:00:32;;;;;;;22.37;7.15;;;;;;;1.50;100.00;99496.76;1775794;80;21346;-78
2022/02/07 06:03:34;;;;;;;10.82;4.90;;;;;;;1.53;100.00;99501.88;1784043;80;21216;-78
2022/02/07 06:06:40;;;;;;;10.90;5.25;;;;;;;1.56;100.00;99497.58;1783526;80;21767;-79
2022/02/07 06:09:47;;;;;;;10.70;5.95;;;;;;;1.56;100.00;99500.77;1761934;80;22313;-79
2022/02/07 06:12:53;;;;;;;8.60;5.25;;;;;;;1.60;100.00;99499.01;1761789;80;21295;-79
2022/02/07 06:15:59;;;;;;;11.97;5.87;;;;;;;1.63;100.00;99491.13;1772472;79;21362;-79
2022/02/07 06:19:05;;;;;;;16.93;5.65;;;;;;;1.65;100.00;99487.81;1771831;80;21322;-78
2022/02/07 06:22:12;;;;;;;13.25;5.17;;;;;;;1.66;100.00;99476.02;1723729;80;22256;-79
2022/02/07 06:25:16;;;;;;;14.00;4.92;;;;;;;1.66;100.00;99472.83;1776758;80;21326;-79
2022/02/07 06:28:21;;;;;;;15.80;6.70;;;;;;;1.70;100.00;99474.76;1720150;82;21323;-79
2022/02/07 06:31:28;;;;;;;14.20;4.40;;;;;;;1.76;100.00;99481.78;1723557;82;21212;-79
2022/02/07 06:34:34;;;;;;;12.95;5.85;;;;;;;1.80;100.00;99483.70;1714233;83;21312;-79
2022/02/07 06:37:41;;;;;;;12.80;4.62;;;;;;;1.86;100.00;99487.67;1723863;82;21318;-79
2022/02/07 06:40:48;;;;;;;13.10;4.25;;;;;;;1.91;100.00;99490.80;1705705;83;21930;-80
2022/02/07 06:43:54;;;;;;;11.85;4.35;;;;;;;1.99;100.00;99480.16;1713135;82;21272;-79
2022/02/07 06:47:00;;;;;;;9.25;4.25;;;;;;;2.06;100.00;99466.45;1718398;82;21362;-81
2022/02/07 06:50:05;;;;;;;12.43;5.35;;;;;;;2.11;100.00;99468.72;1718758;82;22020;-80
2022/02/07 06:53:12;;;;;;;13.32;5.00;;;;;;;2.15;100.00;99466.94;1723457;82;21297;-80
2022/02/07 06:56:20;;;;;;;13.93;4.80;;;;;;;2.20;100.00;99461.97;1701694;83;21348;-80
2022/02/07 06:59:29;;;;;;;9.40;4.22;;;;;;;2.22;100.00;99459.99;1705942;82;21382;-78
2022/02/07 07:02:38;;;;;;;17.37;6.90;;;;;;;2.26;100.00;99459.22;1771129;79;21829;-79
2022/02/07 07:05:45;;;;;;;16.02;6.60;;;;;;;2.32;100.00;99468.58;1781169;79;21353;-79
2022/02/07 07:08:54;;;;;;;13.43;4.97;;;;;;;2.35;100.00;99448.02;1782462;79;21830;-77
2022/02/07 07:12:05;;;;;;;11.78;4.97;;;;;;;2.37;100.00;99444.70;1771249;79;21308;-78
2022/02/07 07:15:15;;;;;;;14.87;5.33;;;;;;;2.36;100.00;99449.25;1768612;79;21299;-78
2022/02/07 07:18:20;;;;;;;10.98;5.10;;;;;;;2.40;100.00;99438.99;1773282;79;21296;-77
2022/02/07 07:21:26;;;;;;;11.43;4.50;;;;;;;2.38;100.00;99434.25;1720143;82;21943;-78
2022/02/07 07:24:32;;;;;;;12.70;5.90;;;;;;;2.34;100.00;99431.48;1734945;81;21304;-79
2022/02/07 07:31:05;;;;;;;12.73;4.60;;;;;;;2.33;100.00;99436.53;1733181;81;22443;-78
2022/02/07 07:34:18;;;;;;;7.08;3.17;;;;;;;2.33;100.00;99439.23;1776016;79;21323;-78
2022/02/07 07:37:23;;;;;;;15.53;4.50;;;;;;;2.30;100.00;99438.52;1710148;82;21190;-79
2022/02/07 07:40:34;;;;;;;7.67;4.47;;;;;;;2.29;100.00;99439.52;1704535;82;21232;-78
2022/02/07 07:43:45;;;;;;;11.55;5.35;;;;;;;2.26;100.00;99444.37;1711382;82;21874;-78
2022/02/07 07:47:11;;;;;;;9.93;3.90;;;;;;;2.30;100.00;99434.47;1705864;82;21810;-78
2022/02/07 07:50:25;;;;;;;11.68;4.40;;;;;;;2.34;100.00;99425.59;1718764;81;21344;-78
2022/02/07 08:03:46;;;;;;;8.03;3.70;;;;;;;2.49;100.00;99421.92;1705048;83;21331;-79
2022/02/07 08:06:59;;;;;;;;;;;;;;;2.54;100.00;99416.93;1779077;79;21247;-80
2022/02/07 08:10:25;;;;;;;11.00;3.87;;;;;;;2.58;100.00;99417.50;1776057;79;20286;-79
2022/02/07 08:13:17;;;;;;;15.13;5.22;;;;;;;2.56;100.00;99409.05;1772423;79;21176;-79
2022/02/07 08:16:25;;;;;;;9.23;4.28;;;;;;;2.60;100.00;99403.37;1773136;79;21364;-79
2022/02/07 08:19:31;;;;;;;11.20;4.25;;;;;;;2.64;100.00;99408.33;1771232;79;21715;-80
2022/02/07 08:22:36;;;;;;;15.25;4.47;;;;;;;2.67;100.00;99410.71;1776850;79;21724;-79
2022/02/07 08:25:42;;;;;;;14.28;5.12;;;;;;;2.69;100.00;99399.78;1771790;79;21338;-79
2022/02/07 08:28:48;;;;;;;11.53;5.10;;;;;;;2.64;100.00;99399.38;1768633;79;21209;-79
2022/02/07 08:31:54;;;;;;;13.83;4.60;;;;;;;2.62;100.00;99399.51;1776421;79;21316;-77
2022/02/07 08:35:01;;;;;;;12.23;4.87;;;;;;;2.65;100.00;99398.37;1767067;79;21713;-77
2022/02/07 08:38:05;;;;;;;7.90;4.47;;;;;;;2.67;100.00;99395.86;1773202;79;21657;-77
2022/02/07 08:41:10;;;;;;;8.90;5.00;;;;;;;2.76;100.00;99397.67;1716745;81;21363;-77
2022/02/07 08:44:15;;;;;;;15.83;5.67;;;;;;;2.86;100.00;99395.43;1767571;79;21346;-78
2022/02/07 08:47:21;;;;;;;17.45;5.83;;;;;;;2.92;100.00;99390.80;1770312;79;21264;-77
2022/02/07 08:50:27;;;;;;;12.65;4.95;;;;;;;2.94;100.00;99392.84;1772107;79;21307;-78
2022/02/07 08:53:38;;;;;;;13.65;5.10;;;;;;;2.97;100.00;99393.91;1770954;79;21254;-78
2022/02/07 08:56:48;;;;;;;10.05;4.17;;;;;;;3.04;99.84;99388.23;1766094;81;21348;-79
2022/02/07 09:00:03;;;;;;;12.00;5.35;;;;;;;3.02;99.52;99386.20;1766811;79;21399;-79
2022/02/07 09:09:41;;;;;;;16.67;5.22;;;;;;;3.14;99.36;99372.81;1772175;79;22130;-79
2022/02/07 09:12:47;;;;;;;11.65;5.80;;;;;;;3.13;98.96;99370.27;1767904;79;22329;-79
2022/02/07 09:16:04;;;;;;;14.15;5.58;;;;;;;3.10;98.82;99363.30;1774614;79;21256;-78
2022/02/07 09:19:04;;;;;;;9.08;4.37;;;;;;;3.04;98.75;99360.71;1776100;79;21300;-79
2022/02/07 09:22:09;;;;;;;12.23;4.33;;;;;;;3.01;98.92;99358.80;1767335;79;21299;-79
2022/02/07 09:25:34;;;;;;;15.40;4.75;;;;;;;2.99;99.04;99353.56;1771767;79;21202;-80
2022/02/07 09:28:39;;;;;;;10.90;4.70;;;;;;;2.94;99.18;99346.92;1769845;79;21315;-78
2022/02/07 09:31:46;;;;;;;9.85;4.75;;;;;;;2.89;99.42;99341.97;1786077;79;21216;-78
2022/02/07 09:34:51;;;;;;;14.03;5.50;;;;;;;2.93;99.81;99338.47;1771626;79;21686;-78
2022/02/07 09:37:58;;;;;;;13.25;5.15;;;;;;;3.01;99.97;99334.02;1768499;79;21263;-79
2022/02/07 09:41:04;;;;;;;15.13;4.85;;;;;;;3.01;99.86;99334.48;1775513;79;21351;-79
2022/02/07 09:44:10;;;;;;;15.78;5.67;;;;;;;3.01;99.87;99338.54;1793519;79;21724;-79
2022/02/07 09:47:16;;;;;;;13.72;4.92;;;;;;;3.00;100.00;99334.14;1772335;79;21287;-78
2022/02/07 09:50:22;;;;;;;10.98;4.87;;;;;;;2.99;100.00;99325.70;1712253;81;21315;-78
2022/02/07 09:53:28;;;;;;;17.70;5.65;;;;;;;2.99;100.00;99314.39;1768558;79;21256;-78
2022/02/07 09:56:34;;;;;;;10.65;4.60;;;;;;;3.01;100.00;99312.88;1769613;79;21234;-79
2022/02/07 09:59:40;;;;;;;16.90;6.00;;;;;;;3.01;100.00;99313.75;1769783;79;21386;-78
2022/02/07 10:02:51;;;;;;;12.45;5.47;;;;;;;2.97;100.00;99302.90;1778928;79;21764;-79
2022/02/07 10:05:59;;;;;;;7.78;4.75;;;;;;;2.99;100.00;99301.39;1770953;79;21280;-79
2022/02/07 10:09:15;;;;;;;9.68;4.90;;;;;;;3.03;100.00;99278.47;1771957;79;21295;-79
2022/02/07 10:15:35;;;;;;;10.98;5.42;;;;;;;3.23;100.00;99276.46;1772210;79;21350;-79
2022/02/07 10:18:43;;;;;;;19.25;6.95;;;;;;;3.32;100.00;99285.84;1775512;79;21210;-78
2022/02/07 10:38:39;;;;;;;11.85;5.67;;;;;;;3.28;100.00;99269.58;1776311;79;21274;-79
2022/02/07 10:45:04;;;;;;;14.50;5.90;;;;;;;3.25;100.00;99256.40;1757760;79;21302;-79
2022/02/07 10:48:12;;;;;;;17.67;6.40;;;;;;;3.22;100.00;99249.09;1780681;79;21239;-78
2022/02/07 10:51:26;;;;;;;13.60;6.25;;;;;;;3.23;100.00;99235.92;1723940;82;21355;-79
2022/02/07 10:54:32;;;;;;;14.25;7.17;;;;;;;3.26;100.00;99243.23;1771580;79;21251;-79
2022/02/07 10:57:38;;;;;;;15.20;6.78;;;;;;;3.32;100.00;99241.24;1769307;79;21248;-80
2022/02/07 11:00:54;;;;;;;14.18;7.37;;;;;;;3.39;100.00;99241.95;1770434;81;21220;-80
2022/02/07 11:03:57;;;;;;;14.05;6.78;;;;;;;3.45;100.00;99244.05;1709400;82;21776;-79
2022/02/07 11:07:01;;;;;;;11.43;6.75;;;;;;;3.48;100.00;99239.67;1771599;79;21275;-79
2022/02/07 11:13:42;;;;;;;17.17;6.87;;;;;;;3.55;100.00;99236.70;1713289;82;21346;-80
2022/02/07 11:23:46;;;;;;;14.43;7.22;;;;;;;3.58;100.00;99208.84;1769509;79;21224;-79
2022/02/07 11:26:48;;;;;;;18.55;7.62;;;;;;;3.62;100.00;99200.39;1766462;79;21822;-78
2022/02/07 11:29:57;;;;;;;22.07;9.28;;;;;;;3.61;100.00;99196.84;1768636;79;21280;-79
2022/02/07 11:33:05;;;;;;;17.90;9.00;;;;;;;3.58;100.00;99198.03;1728070;81;21209;-79
2022/02/07 11:36:11;;;;;;;17.60;8.63;;;;;;;3.58;100.00;99195.83;1728336;81;21369;-78
2022/02/07 11:39:25;;;;;;;16.82;7.92;;;;;;;3.61;100.00;99189.23;1775941;79;21323;-79
2022/02/07 11:42:31;;;;;;;16.87;9.00;;;;;;;3.64;100.00;99195.70;1771055;79;21333;-80
2022/02/07 11:45:36;;;;;;;21.27;8.73;;;;;;;3.64;100.00;99192.98;1768720;79;21193;-79
2022/02/07 11:48:51;;;;;;;21.68;10.45;;;;;;;3.63;100.00;99189.44;1757021;80;21243;-79
2022/02/07 11:51:59;;;;;;;18.77;10.13;;;;;;;3.66;100.00;99197.22;1769094;79;21189;-79
2022/02/07 11:55:05;;;;;;;23.18;10.53;;;;;;;3.71;100.00;99192.17;1773115;79;21292;-79
2022/02/07 11:58:22;;;;;;;19.73;9.98;;;;;;;3.73;100.00;99190.69;1772552;79;21284;-79
2022/02/07 12:01:25;;;;;;;18.30;9.70;;;;;;;3.77;100.00;99183.44;1737780;79;21146;-79
2022/02/07 12:04:53;;;;;;;23.35;9.78;;;;;;;3.84;100.00;99179.06;1773964;79;21366;-79
2022/02/07 12:08:31;;;;;;;24.18;10.43;;;;;;;3.96;100.00;99185.57;1789276;79;21766;-79
2022/02/07 12:11:50;;;;;;;19.73;10.95;;;;;;;4.01;100.00;99185.94;1786313;79;21283;-79
2022/02/07 12:14:56;;;;;;;16.32;9.55;;;;;;;4.06;100.00;99189.00;1788991;79;21184;-79
2022/02/07 12:17:59;;;;;;;22.62;10.98;;;;;;;4.09;100.00;99183.23;1784038;79;21744;-79
2022/02/07 12:21:28;;;;;;;15.13;9.10;;;;;;;4.08;100.00;99180.20;1785567;79;21307;-79
2022/02/07 12:24:57;;;;;;;21.45;10.13;;;;;;;4.09;100.00;99179.18;1726008;82;21647;-79
2022/02/07 12:28:11;;;;;;;18.45;9.95;;;;;;;4.13;100.00;99179.20;1736157;82;21233;-79
2022/02/07 12:31:22;;;;;;;28.83;12.53;;;;;;;4.15;100.00;99183.97;1730927;81;21960;-79
2022/02/07 12:34:29;;;;;;;23.73;11.45;;;;;;;4.20;100.00;99178.91;1733548;81;21338;-79
2022/02/07 12:37:35;;;;;;;23.10;11.78;;;;;;;4.22;100.00;99175.52;1703420;81;21669;-78
2022/02/07 12:40:42;;;;;;;24.25;12.10;;;;;;;4.24;100.00;99177.58;1710183;81;21260;-78
2022/02/07 12:43:50;;;;;;;23.50;12.25;;;;;;;4.29;100.00;99167.11;1730292;81;21295;-79
2022/02/07 12:46:56;;;;;;;20.32;13.08;;;;;;;4.36;100.00;99159.16;1729550;81;21266;-79
2022/02/07 12:50:00;;;;;;;22.62;13.03;;;;;;;4.41;100.00;99148.68;1714178;81;21321;-79
2022/02/07 12:53:05;;;;;;;17.27;11.20;;;;;;;4.41;100.00;99134.30;1723756;81;21341;-80
2022/02/07 12:56:12;;;;;;;26.20;13.25;;;;;;;4.40;100.00;99136.67;1727126;82;21318;-80
2022/02/07 12:59:16;;;;;;;24.10;13.70;;;;;;;4.40;100.00;99132.61;1748625;81;21390;-80
2022/02/07 13:02:22;;;;;;;25.85;13.25;;;;;;;4.37;100.00;99135.13;1723810;82;21354;-80
2022/02/07 13:05:28;;;;;;;25.70;12.58;;;;;;;4.35;100.00;99136.66;1715634;82;21322;-80
2022/02/07 13:08:36;;;;;;;25.17;13.53;;;;;;;4.40;100.00;99131.26;1695861;83;21310;-80
2022/02/07 13:12:01;;;;;;;22.90;14.23;;;;;;;4.44;100.00;99127.21;1699235;84;21390;-79
2022/02/07 13:14:55;;;;;;;26.05;14.55;;;;;;;4.50;100.00;99130.59;1708043;83;21672;-80
2022/02/07 13:18:06;;;;;;;25.45;14.00;;;;;;;4.55;100.00;99122.82;1705090;82;21302;-80
2022/02/07 13:21:16;;;;;;;22.87;15.00;;;;;;;4.58;100.00;99126.05;1706621;83;21625;-80
2022/02/07 13:24:22;;;;;;;24.50;15.25;;;;;;;4.62;100.00;99103.55;1697530;83;21295;-80
2022/02/07 13:27:28;;;;;;;30.80;15.70;;;;;;;4.62;100.00;99117.09;1701422;83;21595;-80
2022/02/07 13:30:33;;;;;;;27.32;16.57;;;;;;;4.60;100.00;99109.63;1711192;83;21359;-79
2022/02/07 13:33:39;;;;;;;28.07;16.27;;;;;;;4.56;100.00;99118.61;1674336;83;21181;-80
2022/02/07 13:36:49;;;;;;;28.98;16.42;;;;;;;4.52;100.00;99124.53;1681051;83;21271;-80
2022/02/07 13:40:14;;;;;;;30.85;17.00;;;;;;;4.47;100.00;99128.21;1703109;83;21290;-80
2022/02/07 13:43:28;;;;;;;29.45;16.77;;;;;;;4.43;100.00;99136.35;1683048;84;21863;-80
2022/02/07 13:46:39;;;;;;;34.70;18.55;;;;;;;4.36;100.00;99133.44;1680241;84;21406;-81
2022/02/07 13:50:05;;;;;;;31.42;18.02;;;;;;;4.29;100.00;99133.27;1684541;83;21241;-81
2022/02/07 13:53:13;;;;;;;29.77;18.42;;;;;;;4.17;100.00;99121.03;1700177;83;21784;-80
2022/02/07 13:56:18;;;;;;;26.23;16.75;;;;;;;4.08;100.00;99118.80;1698014;83;21845;-80
2022/02/07 13:59:24;;;;;;;27.13;17.90;;;;;;;4.01;100.00;99106.95;1694651;83;21661;-80
2022/02/07 14:02:38;;;;;;;28.87;17.42;;;;;;;3.97;100.00;99097.98;1698723;84;21387;-81
2022/02/07 14:05:49;;;;;;;31.23;17.45;;;;;;;3.95;100.00;99099.98;1698300;84;21370;-80
2022/02/07 14:09:01;;;;;;;32.50;17.65;;;;;;;3.94;100.00;99092.38;1705989;82;21208;-80
2022/02/07 14:12:07;;;;;;;28.65;17.00;;;;;;;3.90;100.00;99087.45;1715477;82;21326;-80
2022/02/07 14:15:12;;;;;;;35.13;17.85;;;;;;;3.84;100.00;99087.09;1702829;83;21414;-80
2022/02/07 14:18:19;;;;;;;32.35;17.40;;;;;;;3.78;100.00;99070.17;1682799;83;21966;-78
2022/02/07 14:21:24;;;;;;;25.30;16.25;;;;;;;3.71;100.00;99065.06;1710000;82;21307;-78
2022/02/07 14:24:29;;;;;;;25.45;15.50;;;;;;;3.67;100.00;99067.78;1702452;82;21977;-79
2022/02/07 14:27:37;;;;;;;23.75;15.35;;;;;;;3.63;100.00;99083.98;1712024;83;21252;-79
2022/02/07 14:30:42;;;;;;;28.77;17.00;;;;;;;3.60;100.00;99082.94;1705557;82;21290;-79
2022/02/07 14:33:49;;;;;;;27.60;15.43;;;;;;;3.56;100.00;99086.97;1715147;82;21595;-79
2022/02/07 14:36:54;;;;;;;26.35;15.75;;;;;;;3.52;100.00;99089.65;1713376;83;21913;-79
2022/02/07 14:39:59;;;;;;;24.40;14.38;;;;;;;3.49;100.00;99087.28;1707485;82;22468;-79
2022/02/07 14:43:04;;;;;;;24.60;14.13;;;;;;;3.44;100.00;99071.55;1702094;83;21391;-82
2022/02/07 14:46:12;;;;;;;25.20;12.58;;;;;;;3.41;100.00;99073.72;1702277;83;21283;-79
2022/02/07 14:49:17;;;;;;;24.35;14.10;;;;;;;3.37;100.00;99082.64;1731988;82;21641;-78
2022/02/07 14:52:24;;;;;;;18.60;12.55;;;;;;;3.33;100.00;99082.62;1738620;82;21863;-79
2022/02/07 14:55:32;;;;;;;18.67;12.85;;;;;;;3.29;100.00;99092.05;1738655;82;21906;-79
2022/02/07 14:58:37;;;;;;;20.05;12.25;;;;;;;3.25;100.00;99083.44;1722407;82;21226;-79
2022/02/07 15:01:44;;;;;;;21.37;12.23;;;;;;;3.25;100.00;99083.94;1691279;85;21850;-79
2022/02/07 15:04:52;;;;;;;19.20;12.45;;;;;;;3.21;100.00;99080.70;1691001;85;21284;-79
2022/02/07 15:07:58;;;;;;;22.62;12.45;;;;;;;3.18;100.00;99085.06;1662410;84;21882;-79
2022/02/07 15:11:05;;;;;;;25.08;12.05;;;;;;;3.11;100.00;99073.21;1722739;83;21728;-80
2022/02/07 15:14:10;;;;;;;19.40;11.50;;;;;;;3.05;100.00;99071.97;1722554;82;21250;-79
2022/02/07 15:17:15;;;;;;;20.92;12.28;;;;;;;3.06;100.00;99080.95;1722904;83;21338;-79
2022/02/07 15:20:20;;;;;;;19.98;12.60;;;;;;;3.08;100.00;99070.81;1723405;83;21790;-79
2022/02/07 15:23:26;;;;;;;27.17;12.18;;;;;;;3.11;100.00;99066.45;1723379;83;21312;-79
2022/02/07 15:26:34;;;;;;;19.92;11.80;;;;;;;3.15;100.00;99078.61;1723232;83;21812;-79
2022/02/07 15:29:38;;;;;;;24.60;10.72;;;;;;;3.24;100.00;99076.30;1743595;82;21358;-79
2022/02/07 15:32:48;;;;;;;23.85;13.32;;;;;;;3.35;100.00;99081.97;1722830;83;21227;-80
2022/02/07 15:35:54;;;;;;;24.07;11.68;;;;;;;3.43;100.00;99081.15;1721657;83;22666;-79
2022/02/07 15:39:03;;;;;;;19.92;11.20;;;;;;;3.51;100.00;99076.64;1722838;83;21185;-79
2022/02/07 15:42:08;;;;;;;29.92;13.43;;;;;;;3.58;100.00;99077.70;1723119;83;22575;-79
2022/02/07 15:45:16;;;;;;;21.20;13.32;;;;;;;3.61;100.00;99076.52;1722647;82;21325;-80
2022/02/07 15:48:25;;;;;;;23.22;13.18;;;;;;;3.63;100.00;99077.22;1722480;83;21239;-80
2022/02/07 15:51:30;;;;;;;26.02;14.58;;;;;;;3.64;100.00;99059.13;1723117;83;21919;-80
2022/02/07 15:54:38;;;;;;;27.62;15.05;;;;;;;3.65;100.00;99056.25;1723388;83;21195;-79
2022/02/07 15:57:44;;;;;;;26.60;14.55;;;;;;;3.66;100.00;99054.39;1722609;83;21224;-79
2022/02/07 16:00:50;;;;;;;30.43;14.80;;;;;;;3.64;100.00;99051.86;1722585;83;22214;-78
2022/02/07 16:03:55;;;;;;;36.42;17.25;;;;;;;3.63;100.00;99043.42;1722020;83;21233;-78
2022/02/07 16:07:03;;;;;;;33.28;18.70;;;;;;;3.66;100.00;99033.61;1721340;83;21252;-79
2022/02/07 16:10:09;;;;;;;38.80;18.35;;;;;;;3.67;100.00;99032.63;1714986;83;21974;-79
2022/02/07 16:16:20;;;;;;;35.45;18.42;;;;;;;3.68;100.00;99019.44;1732204;82;21405;-79
2022/02/07 16:19:29;;;;;;;33.55;19.00;;;;;;;3.69;100.00;99013.01;1768954;81;21327;-79
2022/02/07 16:22:35;;;;;;;34.43;18.40;;;;;;;3.71;100.00;99012.32;1769934;81;21346;-79
2022/02/07 16:25:42;;;;;;;34.00;20.02;;;;;;;3.72;100.00;99001.87;1769811;81;21716;-78
2022/02/07 16:28:48;;;;;;;39.00;21.02;;;;;;;3.73;100.00;99004.91;1770629;81;21287;-79
2022/02/07 16:31:55;;;;;;;39.78;20.70;;;;;;;3.70;100.00;98995.77;1769925;81;21188;-79
2022/02/07 16:35:00;;;;;;;39.23;21.68;;;;;;;3.70;100.00;99003.88;1769955;81;21260;-79
2022/02/07 16:38:05;;;;;;;34.85;21.05;;;;;;;3.68;100.00;98992.39;1770336;81;21311;-78
2022/02/07 16:41:13;;;;;;;38.95;23.75;;;;;;;3.68;100.00;98996.45;1770179;81;21286;-79
2022/02/07 16:44:20;;;;;;;40.40;22.55;;;;;;;3.66;100.00;98986.79;1770278;81;21347;-78
2022/02/07 16:47:25;;;;;;;38.23;21.97;;;;;;;3.69;100.00;98977.84;1768721;81;21295;-79
2022/02/07 16:50:30;;;;;;;36.95;22.40;;;;;;;3.72;100.00;98981.59;1768853;81;21339;-80
2022/02/07 16:53:35;;;;;;;39.95;23.47;;;;;;;3.76;100.00;98973.97;1769883;81;21296;-79
2022/02/07 16:56:41;;;;;;;38.05;22.82;;;;;;;3.78;100.00;98979.56;1769293;81;21687;-80
2022/02/07 16:59:40;;;;;;;41.05;22.85;;;;;;;3.82;100.00;98982.28;1780145;79;21315;-80
2022/02/07 17:02:31;;;;;;;44.75;23.75;;;;;;;3.84;100.00;98976.19;1801690;79;21291;-80